sensor_id;sensor_type;location;lat;lon;timestamp;pressure;altitude;pressure_sealevel;temperature;humidity
68889;BME280;55930;47.412;8.790;2023-06-24T00:02:17;95366.16;;;14.75;100.00
68889;BME280;55930;47.412;8.790;2023-06-24T00:05:37;95374.22;;;14.81;100.00
68889;BME280;55930;47.412;8.790;2023-06-24T00:08:59;95371.75;;;14.77;100.00
68889;BME280;55930;47.412;8.790;2023-06-24T00:12:22;95372.56;;;14.83;100.00
68889;BME280;55930;47.412;8.790;2023-06-24T00:15:43;95369.06;;;14.77;100.00
68889;BME280;55930;47.412;8.790;2023-06-24T00:19:03;95363.53;;;14.81;100.00
68889;BME280;55930;47.412;8.790;2023-06-24T00:22:24;95372.97;;;14.76;100.00
68889;BME280;55930;47.412;8.790;2023-06-24T00:25:44;95363.13;;;14.68;100.00
68889;BME280;55930;47.412;8.790;2023-06-24T00:29:04;95372.78;;;15.00;100.00
68889;BME280;55930;47.412;8.790;2023-06-24T00:32:25;95369.38;;;15.20;100.00
68889;BME280;55930;47.412;8.790;2023-06-24T00:35:46;95370.91;;;15.06;100.00
68889;BME280;55930;47.412;8.790;2023-06-24T00:39:06;95380.13;;;15.05;100.00
68889;BME280;55930;47.412;8.790;2023-06-24T00:42:26;95385.78;;;14.92;100.00
68889;BME280;55930;47.412;8.790;2023-06-24T00:45:47;95386.97;;;14.71;100.00
68889;BME280;55930;47.412;8.790;2023-06-24T00:49:09;95379.28;;;14.59;100.00
68889;BME280;55930;47.412;8.790;2023-06-24T00:52:30;95378.53;;;14.58;100.00
68889;BME280;55930;47.412;8.790;2023-06-24T00:55:51;95371.16;;;14.53;100.00
68889;BME280;55930;47.412;8.790;2023-06-24T00:59:16;95370.44;;;14.38;100.00
68889;BME280;55930;47.412;8.790;2023-06-24T01:02:37;95366.84;;;14.55;100.00
68889;BME280;55930;47.412;8.790;2023-06-24T01:05:58;95376.94;;;14.66;100.00
68889;BME280;55930;47.412;8.790;2023-06-24T01:09:19;95374.69;;;14.79;100.00
68889;BME280;55930;47.412;8.790;2023-06-24T01:12:40;95368.19;;;14.66;100.00
68889;BME280;55930;47.412;8.790;2023-06-24T01:16:10;95372.00;;;14.59;100.00
68889;BME280;55930;47.412;8.790;2023-06-24T01:34:15;95374.50;;;14.18;100.00
68889;BME280;55930;47.412;8.790;2023-06-24T01:37:44;95371.94;;;14.24;100.00
68889;BME280;55930;47.412;8.790;2023-06-24T01:41:09;95378.91;;;14.22;100.00
68889;BME280;55930;47.412;8.790;2023-06-24T01:44:33;95368.44;;;14.03;100.00
68889;BME280;55930;47.412;8.790;2023-06-24T01:48:00;95361.19;;;14.04;100.00
68889;BME280;55930;47.412;8.790;2023-06-24T01:51:23;95365.59;;;14.07;100.00
68889;BME280;55930;47.412;8.790;2023-06-24T01:54:49;95365.88;;;13.94;100.00
68889;BME280;55930;47.412;8.790;2023-06-24T01:58:11;95356.31;;;13.88;100.00
68889;BME280;55930;47.412;8.790;2023-06-24T02:01:35;95367.06;;;13.93;100.00
68889;BME280;55930;47.412;8.790;2023-06-24T02:04:57;95360.34;;;13.98;100.00
68889;BME280;55930;47.412;8.790;2023-06-24T02:08:19;95356.19;;;13.97;100.00
68889;BME280;55930;47.412;8.790;2023-06-24T02:11:41;95364.03;;;14.00;100.00
68889;BME280;55930;47.412;8.790;2023-06-24T02:15:02;95362.72;;;13.81;100.00
68889;BME280;55930;47.412;8.790;2023-06-24T02:18:26;95357.13;;;13.64;100.00
68889;BME280;55930;47.412;8.790;2023-06-24T02:21:49;95356.84;;;13.48;100.00
68889;BME280;55930;47.412;8.790;2023-06-24T02:25:12;95363.09;;;13.59;100.00
68889;BME280;55930;47.412;8.790;2023-06-24T02:28:34;95353.22;;;13.36;100.00
68889;BME280;55930;47.412;8.790;2023-06-24T02:31:55;95353.72;;;13.25;100.00
68889;BME280;55930;47.412;8.790;2023-06-24T02:35:15;95354.59;;;13.31;100.00
68889;BME280;55930;47.412;8.790;2023-06-24T02:38:36;95356.22;;;13.29;100.00
68889;BME280;55930;47.412;8.790;2023-06-24T02:41:58;95364.97;;;13.29;100.00
68889;BME280;55930;47.412;8.790;2023-06-24T02:45:19;95359.63;;;13.29;100.00
68889;BME280;55930;47.412;8.790;2023-06-24T02:48:39;95367.34;;;13.27;100.00
68889;BME280;55930;47.412;8.790;2023-06-24T02:52:00;95361.88;;;13.46;100.00
68889;BME280;55930;47.412;8.790;2023-06-24T02:55:21;95354.22;;;13.24;100.00
68889;BME280;55930;47.412;8.790;2023-06-24T02:58:42;95364.13;;;13.23;100.00
68889;BME280;55930;47.412;8.790;2023-06-24T03:02:05;95355.56;;;13.19;100.00
68889;BME280;55930;47.412;8.790;2023-06-24T03:05:26;95363.53;;;12.95;100.00
68889;BME280;55930;47.412;8.790;2023-06-24T03:08:50;95362.84;;;12.86;100.00
68889;BME280;55930;47.412;8.790;2023-06-24T03:12:11;95367.31;;;12.80;100.00
68889;BME280;55930;47.412;8.790;2023-06-24T03:15:31;95375.31;;;12.80;100.00
68889;BME280;55930;47.412;8.790;2023-06-24T03:18:51;95376.72;;;12.66;100.00
68889;BME280;55930;47.412;8.790;2023-06-24T03:22:12;95375.03;;;12.78;100.00
68889;BME280;55930;47.412;8.790;2023-06-24T03:25:33;95378.16;;;12.76;100.00
68889;BME280;55930;47.412;8.790;2023-06-24T03:28:55;95373.28;;;12.75;100.00
68889;BME280;55930;47.412;8.790;2023-06-24T03:32:16;95381.59;;;12.68;100.00
68889;BME280;55930;47.412;8.790;2023-06-24T03:35:36;95376.50;;;12.79;100.00
68889;BME280;55930;47.412;8.790;2023-06-24T03:38:59;95382.41;;;12.83;100.00
68889;BME280;55930;47.412;8.790;2023-06-24T03:42:20;95383.59;;;12.82;100.00
68889;BME280;55930;47.412;8.790;2023-06-24T03:45:40;95388.13;;;12.67;100.00
68889;BME280;55930;47.412;8.790;2023-06-24T03:49:00;95385.94;;;12.56;100.00
68889;BME280;55930;47.412;8.790;2023-06-24T03:52:21;95377.53;;;12.48;100.00
68889;BME280;55930;47.412;8.790;2023-06-24T03:55:44;95383.63;;;12.40;100.00
68889;BME280;55930;47.412;8.790;2023-06-24T03:59:04;95382.69;;;12.61;100.00
68889;BME280;55930;47.412;8.790;2023-06-24T04:02:25;95391.19;;;12.41;100.00
68889;BME280;55930;47.412;8.790;2023-06-24T04:05:47;95384.91;;;12.53;100.00
68889;BME280;55930;47.412;8.790;2023-06-24T04:09:13;95387.41;;;12.57;100.00
68889;BME280;55930;47.412;8.790;2023-06-24T04:12:36;95386.13;;;12.52;100.00
68889;BME280;55930;47.412;8.790;2023-06-24T04:15:57;95392.41;;;12.64;100.00
68889;BME280;55930;47.412;8.790;2023-06-24T04:19:19;95398.47;;;12.64;100.00
68889;BME280;55930;47.412;8.790;2023-06-24T04:22:42;95400.03;;;12.80;100.00
68889;BME280;55930;47.412;8.790;2023-06-24T04:26:02;95395.38;;;12.90;100.00
68889;BME280;55930;47.412;8.790;2023-06-24T04:29:23;95390.41;;;13.07;100.00
68889;BME280;55930;47.412;8.790;2023-06-24T04:32:43;95397.63;;;13.15;100.00
68889;BME280;55930;47.412;8.790;2023-06-24T04:36:04;95399.50;;;13.24;100.00
68889;BME280;55930;47.412;8.790;2023-06-24T04:39:24;95407.88;;;13.31;100.00
68889;BME280;55930;47.412;8.790;2023-06-24T04:42:45;95409.28;;;13.41;100.00
68889;BME280;55930;47.412;8.790;2023-06-24T04:46:06;95414.09;;;13.52;100.00
68889;BME280;55930;47.412;8.790;2023-06-24T04:49:26;95412.47;;;13.69;100.00
68889;BME280;55930;47.412;8.790;2023-06-24T04:52:52;95419.94;;;13.80;100.00
68889;BME280;55930;47.412;8.790;2023-06-24T04:56:16;95419.22;;;14.09;100.00
68889;BME280;55930;47.412;8.790;2023-06-24T04:59:37;95418.78;;;14.25;100.00
68889;BME280;55930;47.412;8.790;2023-06-24T05:02:58;95421.91;;;14.38;100.00
68889;BME280;55930;47.412;8.790;2023-06-24T05:06:18;95420.06;;;14.59;100.00
68889;BME280;55930;47.412;8.790;2023-06-24T05:09:39;95417.97;;;14.83;100.00
68889;BME280;55930;47.412;8.790;2023-06-24T05:12:59;95421.22;;;15.08;100.00
68889;BME280;55930;47.412;8.790;2023-06-24T05:16:20;95427.59;;;15.30;100.00
68889;BME280;55930;47.412;8.790;2023-06-24T05:19:40;95427.41;;;15.54;100.00
68889;BME280;55930;47.412;8.790;2023-06-24T05:23:00;95428.00;;;15.64;100.00
68889;BME280;55930;47.412;8.790;2023-06-24T05:26:21;95436.75;;;15.24;100.00
68889;BME280;55930;47.412;8.790;2023-06-24T05:29:41;95442.03;;;15.39;100.00
68889;BME280;55930;47.412;8.790;2023-06-24T05:33:01;95431.34;;;15.59;100.00
68889;BME280;55930;47.412;8.790;2023-06-24T05:36:24;95431.63;;;16.13;100.00
68889;BME280;55930;47.412;8.790;2023-06-24T05:39:44;95439.47;;;16.73;100.00
68889;BME280;55930;47.412;8.790;2023-06-24T05:43:05;95439.94;;;16.72;100.00
68889;BME280;55930;47.412;8.790;2023-06-24T05:46:25;95446.25;;;17.06;100.00
68889;BME280;55930;47.412;8.790;2023-06-24T05:49:46;95431.88;;;17.09;100.00
68889;BME280;55930;47.412;8.790;2023-06-24T05:53:06;95436.56;;;17.19;100.00
68889;BME280;55930;47.412;8.790;2023-06-24T05:56:26;95444.00;;;17.41;100.00
68889;BME280;55930;47.412;8.790;2023-06-24T05:59:47;95445.63;;;17.76;100.00
68889;BME280;55930;47.412;8.790;2023-06-24T06:03:07;95441.94;;;17.73;100.00
68889;BME280;55930;47.412;8.790;2023-06-24T06:06:28;95442.72;;;17.96;100.00
68889;BME280;55930;47.412;8.790;2023-06-24T06:09:48;95451.75;;;17.87;100.00
68889;BME280;55930;47.412;8.790;2023-06-24T06:13:08;95436.19;;;18.25;100.00
68889;BME280;55930;47.412;8.790;2023-06-24T06:16:29;95447.72;;;18.70;99.88
68889;BME280;55930;47.412;8.790;2023-06-24T06:19:49;95442.78;;;19.07;100.00
68889;BME280;55930;47.412;8.790;2023-06-24T06:23:10;95441.84;;;18.99;97.83
68889;BME280;55930;47.412;8.790;2023-06-24T06:26:30;95446.72;;;18.95;97.12
68889;BME280;55930;47.412;8.790;2023-06-24T06:29:50;95451.03;;;19.32;94.08
68889;BME280;55930;47.412;8.790;2023-06-24T06:33:11;95437.75;;;19.62;96.17
68889;BME280;55930;47.412;8.790;2023-06-24T06:36:31;95437.75;;;19.56;89.76
68889;BME280;55930;47.412;8.790;2023-06-24T06:39:54;95439.47;;;19.59;91.37
68889;BME280;55930;47.412;8.790;2023-06-24T06:43:14;95434.38;;;19.97;87.91
68889;BME280;55930;47.412;8.790;2023-06-24T06:46:34;95431.97;;;20.34;88.39
68889;BME280;55930;47.412;8.790;2023-06-24T06:49:54;95431.63;;;20.49;86.14
68889;BME280;55930;47.412;8.790;2023-06-24T06:53:15;95430.81;;;20.54;85.29
68889;BME280;55930;47.412;8.790;2023-06-24T06:56:35;95427.53;;;20.96;85.12
68889;BME280;55930;47.412;8.790;2023-06-24T06:59:56;95433.09;;;21.28;83.27
68889;BME280;55930;47.412;8.790;2023-06-24T07:03:16;95438.34;;;21.21;79.69
68889;BME280;55930;47.412;8.790;2023-06-24T07:06:37;95440.09;;;21.61;81.91
68889;BME280;55930;47.412;8.790;2023-06-24T07:09:57;95437.13;;;21.41;78.73
68889;BME280;55930;47.412;8.790;2023-06-24T07:13:17;95427.09;;;21.60;82.81
68889;BME280;55930;47.412;8.790;2023-06-24T07:16:38;95433.50;;;22.32;78.12
68889;BME280;55930;47.412;8.790;2023-06-24T07:20:00;95423.97;;;22.12;77.02
68889;BME280;55930;47.412;8.790;2023-06-24T07:23:21;95426.66;;;22.12;75.50
68889;BME280;55930;47.412;8.790;2023-06-24T07:26:44;95430.41;;;22.09;76.54
68889;BME280;55930;47.412;8.790;2023-06-24T07:30:05;95423.81;;;22.23;75.18
68889;BME280;55930;47.412;8.790;2023-06-24T07:33:26;95420.34;;;22.41;68.92
68889;BME280;55930;47.412;8.790;2023-06-24T07:36:46;95417.66;;;22.55;71.34
68889;BME280;55930;47.412;8.790;2023-06-24T07:40:07;95420.03;;;22.45;69.02
68889;BME280;55930;47.412;8.790;2023-06-24T07:43:28;95413.81;;;23.08;67.40
68889;BME280;55930;47.412;8.790;2023-06-24T07:46:48;95402.56;;;23.57;65.91
68889;BME280;55930;47.412;8.790;2023-06-24T07:50:11;95402.34;;;23.42;67.36
68889;BME280;55930;47.412;8.790;2023-06-24T07:53:33;95409.88;;;23.09;65.71
68889;BME280;55930;47.412;8.790;2023-06-24T07:56:54;95409.72;;;24.15;65.05
68889;BME280;55930;47.412;8.790;2023-06-24T08:00:17;95408.50;;;24.57;63.74
68889;BME280;55930;47.412;8.790;2023-06-24T08:03:38;95396.78;;;24.42;63.84
68889;BME280;55930;47.412;8.790;2023-06-24T08:06:58;95400.53;;;24.59;59.69
68889;BME280;55930;47.412;8.790;2023-06-24T08:10:21;95403.25;;;24.59;56.75
68889;BME280;55930;47.412;8.790;2023-06-24T08:13:42;95403.97;;;24.81;54.46
68889;BME280;55930;47.412;8.790;2023-06-24T08:17:02;95396.84;;;24.28;53.46
68889;BME280;55930;47.412;8.790;2023-06-24T08:20:25;95387.53;;;24.86;53.72
68889;BME280;55930;47.412;8.790;2023-06-24T08:23:46;95392.66;;;25.18;52.07
68889;BME280;55930;47.412;8.790;2023-06-24T08:27:06;95391.78;;;24.95;52.38
68889;BME280;55930;47.412;8.790;2023-06-24T08:30:28;95384.25;;;25.08;52.49
68889;BME280;55930;47.412;8.790;2023-06-24T08:33:52;95378.94;;;24.25;55.52
68889;BME280;55930;47.412;8.790;2023-06-24T08:37:13;95375.44;;;25.51;50.73
68889;BME280;55930;47.412;8.790;2023-06-24T08:40:33;95386.97;;;24.18;53.09
68889;BME280;55930;47.412;8.790;2023-06-24T08:43:54;95376.22;;;25.60;52.70
68889;BME280;55930;47.412;8.790;2023-06-24T08:47:15;95384.88;;;26.09;51.88
68889;BME280;55930;47.412;8.790;2023-06-24T08:50:43;95384.25;;;25.88;50.07
68889;BME280;55930;47.412;8.790;2023-06-24T08:54:05;95370.72;;;26.18;49.08
68889;BME280;55930;47.412;8.790;2023-06-24T08:57:27;95371.78;;;25.49;52.10
68889;BME280;55930;47.412;8.790;2023-06-24T09:00:47;95370.22;;;26.35;48.21
68889;BME280;55930;47.412;8.790;2023-06-24T09:04:08;95368.66;;;27.33;48.36
68889;BME280;55930;47.412;8.790;2023-06-24T09:07:28;95363.97;;;29.05;44.96
68889;BME280;55930;47.412;8.790;2023-06-24T09:10:55;95366.53;;;28.36;38.96
68889;BME280;55930;47.412;8.790;2023-06-24T09:14:15;95357.19;;;30.02;40.46
68889;BME280;55930;47.412;8.790;2023-06-24T09:17:44;95356.22;;;29.63;40.75
68889;BME280;55930;47.412;8.790;2023-06-24T09:21:07;95361.06;;;29.38;39.32
68889;BME280;55930;47.412;8.790;2023-06-24T09:24:30;95359.00;;;30.26;38.58
68889;BME280;55930;47.412;8.790;2023-06-24T09:27:51;95359.34;;;30.76;37.37
68889;BME280;55930;47.412;8.790;2023-06-24T09:31:12;95338.63;;;30.10;40.29
68889;BME280;55930;47.412;8.790;2023-06-24T09:34:33;95351.50;;;30.54;38.41
68889;BME280;55930;47.412;8.790;2023-06-24T09:37:57;95343.38;;;30.10;40.42
68889;BME280;55930;47.412;8.790;2023-06-24T09:41:19;95339.31;;;31.03;36.35
68889;BME280;55930;47.412;8.790;2023-06-24T09:44:39;95342.34;;;31.55;38.30
68889;BME280;55930;47.412;8.790;2023-06-24T09:48:00;95334.97;;;30.90;38.09
68889;BME280;55930;47.412;8.790;2023-06-24T09:51:24;95338.56;;;30.73;37.88
68889;BME280;55930;47.412;8.790;2023-06-24T09:54:50;95342.38;;;32.15;37.33
68889;BME280;55930;47.412;8.790;2023-06-24T09:58:13;95341.91;;;31.78;36.86
68889;BME280;55930;47.412;8.790;2023-06-24T10:01:38;95335.75;;;31.10;36.12
68889;BME280;55930;47.412;8.790;2023-06-24T10:05:00;95338.38;;;31.97;36.40
68889;BME280;55930;47.412;8.790;2023-06-24T10:08:24;95326.00;;;30.15;36.68
68889;BME280;55930;47.412;8.790;2023-06-24T10:11:47;95330.53;;;31.33;36.27
68889;BME280;55930;47.412;8.790;2023-06-24T10:15:08;95312.63;;;31.61;34.52
68889;BME280;55930;47.412;8.790;2023-06-24T10:18:32;95326.91;;;28.95;37.07
68889;BME280;55930;47.412;8.790;2023-06-24T10:21:57;95312.81;;;29.33;37.99
68889;BME280;55930;47.412;8.790;2023-06-24T10:25:20;95321.63;;;30.48;36.47
68889;BME280;55930;47.412;8.790;2023-06-24T10:32:26;95307.94;;;28.79;37.44
68889;BME280;55930;47.412;8.790;2023-06-24T10:35:49;95314.56;;;29.82;38.48
68889;BME280;55930;47.412;8.790;2023-06-24T10:46:53;95314.47;;;32.49;31.70
68889;BME280;55930;47.412;8.790;2023-06-24T10:50:19;95305.72;;;31.31;32.14
68889;BME280;55930;47.412;8.790;2023-06-24T10:53:43;95303.31;;;32.26;32.39
68889;BME280;55930;47.412;8.790;2023-06-24T10:57:04;95294.25;;;31.73;31.07
68889;BME280;55930;47.412;8.790;2023-06-24T11:00:25;95299.81;;;31.94;30.69
68889;BME280;55930;47.412;8.790;2023-06-24T11:03:45;95289.09;;;31.39;31.40
68889;BME280;55930;47.412;8.790;2023-06-24T11:07:06;95278.16;;;32.29;30.75
68889;BME280;55930;47.412;8.790;2023-06-24T11:10:26;95283.88;;;30.10;31.70
68889;BME280;55930;47.412;8.790;2023-06-24T11:13:48;95272.63;;;33.15;30.36
68889;BME280;55930;47.412;8.790;2023-06-24T11:17:08;95274.81;;;33.16;30.47
68889;BME280;55930;47.412;8.790;2023-06-24T11:20:29;95266.19;;;33.10;29.52
68889;BME280;55930;47.412;8.790;2023-06-24T11:23:49;95261.53;;;32.49;28.81
68889;BME280;55930;47.412;8.790;2023-06-24T11:27:10;95255.81;;;33.65;27.25
68889;BME280;55930;47.412;8.790;2023-06-24T11:30:34;95252.31;;;32.44;27.73
68889;BME280;55930;47.412;8.790;2023-06-24T11:33:57;95245.88;;;33.71;28.47
68889;BME280;55930;47.412;8.790;2023-06-24T11:37:18;95245.44;;;32.34;30.08
68889;BME280;55930;47.412;8.790;2023-06-24T11:40:38;95243.53;;;33.33;27.23
68889;BME280;55930;47.412;8.790;2023-06-24T11:43:59;95243.16;;;32.94;27.50
68889;BME280;55930;47.412;8.790;2023-06-24T11:47:23;95247.91;;;33.59;26.95
68889;BME280;55930;47.412;8.790;2023-06-24T11:50:43;95238.66;;;32.77;27.78
68889;BME280;55930;47.412;8.790;2023-06-24T11:54:06;95239.94;;;33.30;29.08
68889;BME280;55930;47.412;8.790;2023-06-24T11:57:55;95223.75;;;32.38;28.14
68889;BME280;55930;47.412;8.790;2023-06-24T12:01:16;95231.03;;;33.65;28.97
68889;BME280;55930;47.412;8.790;2023-06-24T12:04:37;95225.97;;;31.99;28.65
68889;BME280;55930;47.412;8.790;2023-06-24T12:08:01;95227.59;;;32.23;31.14
68889;BME280;55930;47.412;8.790;2023-06-24T12:11:22;95215.63;;;32.82;28.34
68889;BME280;55930;47.412;8.790;2023-06-24T12:14:42;95222.72;;;33.30;27.26
68889;BME280;55930;47.412;8.790;2023-06-24T12:18:06;95214.69;;;32.68;29.36
68889;BME280;55930;47.412;8.790;2023-06-24T12:21:26;95212.09;;;32.49;28.94
68889;BME280;55930;47.412;8.790;2023-06-24T12:24:47;95214.53;;;32.02;29.56
68889;BME280;55930;47.412;8.790;2023-06-24T12:28:07;95213.97;;;31.53;32.29
68889;BME280;55930;47.412;8.790;2023-06-24T12:31:27;95213.13;;;30.72;34.62
68889;BME280;55930;47.412;8.790;2023-06-24T12:34:48;95194.81;;;32.79;29.49
68889;BME280;55930;47.412;8.790;2023-06-24T12:38:08;95198.56;;;32.20;29.39
68889;BME280;55930;47.412;8.790;2023-06-24T12:41:28;95201.72;;;33.13;28.35
68889;BME280;55930;47.412;8.790;2023-06-24T12:44:49;95196.53;;;32.63;30.24
68889;BME280;55930;47.412;8.790;2023-06-24T12:48:13;95190.22;;;33.61;27.92
68889;BME280;55930;47.412;8.790;2023-06-24T12:51:34;95199.69;;;35.02;26.57
68889;BME280;55930;47.412;8.790;2023-06-24T12:54:54;95201.47;;;33.54;27.65
68889;BME280;55930;47.412;8.790;2023-06-24T12:58:19;95187.84;;;33.91;26.83
68889;BME280;55930;47.412;8.790;2023-06-24T13:01:39;95185.38;;;32.82;28.34
68889;BME280;55930;47.412;8.790;2023-06-24T13:05:04;95183.31;;;32.50;27.74
68889;BME280;55930;47.412;8.790;2023-06-24T13:08:25;95194.03;;;33.33;26.38
68889;BME280;55930;47.412;8.790;2023-06-24T13:11:46;95186.22;;;33.29;28.55
68889;BME280;55930;47.412;8.790;2023-06-24T13:15:06;95179.31;;;33.63;26.15
68889;BME280;55930;47.412;8.790;2023-06-24T13:18:29;95175.63;;;33.94;29.05
68889;BME280;55930;47.412;8.790;2023-06-24T13:21:49;95175.63;;;34.05;25.16
68889;BME280;55930;47.412;8.790;2023-06-24T13:25:10;95170.81;;;34.29;26.50
68889;BME280;55930;47.412;8.790;2023-06-24T13:28:31;95166.66;;;33.58;26.40
68889;BME280;55930;47.412;8.790;2023-06-24T13:31:51;95171.66;;;31.66;27.40
68889;BME280;55930;47.412;8.790;2023-06-24T13:35:12;95166.44;;;33.10;25.85
68889;BME280;55930;47.412;8.790;2023-06-24T13:38:32;95166.50;;;34.26;26.40
68889;BME280;55930;47.412;8.790;2023-06-24T13:41:53;95152.28;;;33.48;26.96
68889;BME280;55930;47.412;8.790;2023-06-24T13:45:14;95161.16;;;32.36;28.97
68889;BME280;55930;47.412;8.790;2023-06-24T13:48:34;95171.69;;;32.94;28.08
68889;BME280;55930;47.412;8.790;2023-06-24T13:51:54;95160.81;;;32.20;26.72
68889;BME280;55930;47.412;8.790;2023-06-24T13:55:15;95156.63;;;31.98;27.43
68889;BME280;55930;47.412;8.790;2023-06-24T13:58:35;95152.88;;;32.79;26.60
68889;BME280;55930;47.412;8.790;2023-06-24T14:01:58;95139.75;;;31.92;30.35
68889;BME280;55930;47.412;8.790;2023-06-24T14:05:18;95137.22;;;31.44;29.17
68889;BME280;55930;47.412;8.790;2023-06-24T14:08:39;95134.66;;;31.98;30.62
68889;BME280;55930;47.412;8.790;2023-06-24T14:11:59;95137.97;;;30.65;30.36
68889;BME280;55930;47.412;8.790;2023-06-24T14:15:20;95130.84;;;31.10;31.97
68889;BME280;55930;47.412;8.790;2023-06-24T14:18:40;95133.50;;;30.79;31.81
68889;BME280;55930;47.412;8.790;2023-06-24T14:22:01;95126.19;;;31.53;30.07
68889;BME280;55930;47.412;8.790;2023-06-24T14:25:21;95119.03;;;32.76;28.14
68889;BME280;55930;47.412;8.790;2023-06-24T14:28:42;95124.75;;;33.25;29.15
68889;BME280;55930;47.412;8.790;2023-06-24T14:32:03;95117.63;;;32.87;29.09
68889;BME280;55930;47.412;8.790;2023-06-24T14:35:23;95124.59;;;32.34;28.59
68889;BME280;55930;47.412;8.790;2023-06-24T14:38:44;95125.25;;;32.77;30.04
68889;BME280;55930;47.412;8.790;2023-06-24T14:42:05;95115.94;;;31.23;28.87
68889;BME280;55930;47.412;8.790;2023-06-24T14:45:26;95109.22;;;32.40;29.22
68889;BME280;55930;47.412;8.790;2023-06-24T14:48:46;95109.97;;;32.85;28.92
68889;BME280;55930;47.412;8.790;2023-06-24T14:52:06;95106.66;;;32.11;29.92
68889;BME280;55930;47.412;8.790;2023-06-24T14:55:27;95098.41;;;32.54;27.77
68889;BME280;55930;47.412;8.790;2023-06-24T14:58:47;95095.06;;;33.00;28.73
68889;BME280;55930;47.412;8.790;2023-06-24T15:02:08;95091.03;;;32.14;30.14
68889;BME280;55930;47.412;8.790;2023-06-24T15:05:30;95086.50;;;29.77;31.36
68889;BME280;55930;47.412;8.790;2023-06-24T15:08:53;95086.41;;;31.74;29.55
68889;BME280;55930;47.412;8.790;2023-06-24T15:12:13;95086.09;;;31.48;30.53
68889;BME280;55930;47.412;8.790;2023-06-24T15:15:33;95088.69;;;30.27;30.02
68889;BME280;55930;47.412;8.790;2023-06-24T15:18:54;95075.69;;;31.47;29.59
68889;BME280;55930;47.412;8.790;2023-06-24T15:22:14;95081.72;;;29.68;31.65
68889;BME280;55930;47.412;8.790;2023-06-24T15:25:35;95083.66;;;28.58;32.72
68889;BME280;55930;47.412;8.790;2023-06-24T15:28:56;95069.97;;;28.48;33.12
68889;BME280;55930;47.412;8.790;2023-06-24T15:32:16;95068.84;;;27.65;35.97
68889;BME280;55930;47.412;8.790;2023-06-24T15:35:37;95072.94;;;28.08;37.17
68889;BME280;55930;47.412;8.790;2023-06-24T15:38:57;95062.19;;;27.76;33.87
68889;BME280;55930;47.412;8.790;2023-06-24T15:42:20;95064.22;;;27.51;35.33
68889;BME280;55930;47.412;8.790;2023-06-24T15:45:42;95060.50;;;27.80;33.36
68889;BME280;55930;47.412;8.790;2023-06-24T15:49:02;95060.59;;;28.07;35.94
68889;BME280;55930;47.412;8.790;2023-06-24T15:52:23;95046.38;;;27.57;35.93
68889;BME280;55930;47.412;8.790;2023-06-24T15:55:43;95048.81;;;27.46;36.23
68889;BME280;55930;47.412;8.790;2023-06-24T15:59:03;95057.88;;;27.23;36.72
68889;BME280;55930;47.412;8.790;2023-06-24T16:02:24;95056.56;;;27.07;36.19
68889;BME280;55930;47.412;8.790;2023-06-24T16:05:44;95051.56;;;26.96;37.58
68889;BME280;55930;47.412;8.790;2023-06-24T16:09:05;95045.94;;;26.61;37.68
68889;BME280;55930;47.412;8.790;2023-06-24T16:12:26;95043.53;;;26.73;36.91
68889;BME280;55930;47.412;8.790;2023-06-24T16:15:49;95057.22;;;26.58;37.19
68889;BME280;55930;47.412;8.790;2023-06-24T16:19:09;95041.47;;;26.81;37.63
68889;BME280;55930;47.412;8.790;2023-06-24T16:22:32;95043.31;;;26.46;38.45
68889;BME280;55930;47.412;8.790;2023-06-24T16:25:52;95038.94;;;26.43;38.32
68889;BME280;55930;47.412;8.790;2023-06-24T16:29:13;95032.75;;;26.50;35.77
68889;BME280;55930;47.412;8.790;2023-06-24T16:32:33;95029.59;;;25.66;37.03
68889;BME280;55930;47.412;8.790;2023-06-24T16:35:54;95025.06;;;25.76;38.60
68889;BME280;55930;47.412;8.790;2023-06-24T16:39:14;95028.75;;;26.04;39.16
68889;BME280;55930;47.412;8.790;2023-06-24T16:42:35;95021.06;;;26.33;35.24
68889;BME280;55930;47.412;8.790;2023-06-24T16:45:55;95018.53;;;25.57;36.81
68889;BME280;55930;47.412;8.790;2023-06-24T16:49:16;95021.50;;;26.06;36.82
68889;BME280;55930;47.412;8.790;2023-06-24T16:52:36;95016.50;;;25.80;37.58
68889;BME280;55930;47.412;8.790;2023-06-24T16:55:59;95010.84;;;26.01;39.44
68889;BME280;55930;47.412;8.790;2023-06-24T16:59:19;95016.66;;;25.89;38.02
68889;BME280;55930;47.412;8.790;2023-06-24T17:02:40;95007.69;;;25.49;38.31
68889;BME280;55930;47.412;8.790;2023-06-24T17:06:01;95008.41;;;25.49;38.56
68889;BME280;55930;47.412;8.790;2023-06-24T17:09:21;95007.72;;;24.96;40.27
68889;BME280;55930;47.412;8.790;2023-06-24T17:12:42;95004.06;;;24.78;39.28
68889;BME280;55930;47.412;8.790;2023-06-24T17:16:02;95009.53;;;24.93;39.04
68889;BME280;55930;47.412;8.790;2023-06-24T17:19:25;95007.53;;;25.09;40.45
68889;BME280;55930;47.412;8.790;2023-06-24T17:22:45;95000.41;;;24.60;40.18
68889;BME280;55930;47.412;8.790;2023-06-24T17:26:07;94997.19;;;24.69;40.71
68889;BME280;55930;47.412;8.790;2023-06-24T17:29:27;94995.88;;;24.48;40.73
68889;BME280;55930;47.412;8.790;2023-06-24T17:32:47;95001.50;;;24.50;41.51
68889;BME280;55930;47.412;8.790;2023-06-24T17:36:08;94997.72;;;24.60;40.72
68889;BME280;55930;47.412;8.790;2023-06-24T17:39:29;94995.31;;;24.26;40.87
68889;BME280;55930;47.412;8.790;2023-06-24T17:42:49;94998.50;;;24.17;41.22
68889;BME280;55930;47.412;8.790;2023-06-24T17:46:12;94995.56;;;23.72;42.05
68889;BME280;55930;47.412;8.790;2023-06-24T17:49:33;94995.47;;;23.85;42.23
68889;BME280;55930;47.412;8.790;2023-06-24T17:52:53;94991.09;;;23.74;43.33
68889;BME280;55930;47.412;8.790;2023-06-24T17:56:14;94985.97;;;23.63;42.51
68889;BME280;55930;47.412;8.790;2023-06-24T17:59:34;94987.63;;;23.38;43.16
68889;BME280;55930;47.412;8.790;2023-06-24T18:02:54;94983.25;;;23.35;43.58
68889;BME280;55930;47.412;8.790;2023-06-24T18:06:15;94978.91;;;23.32;44.91
68889;BME280;55930;47.412;8.790;2023-06-24T18:09:35;94973.47;;;23.32;44.38